Time;durP1;ratioP1;P1;durP2;ratioP2;P2;SDS_P1;SDS_P2;PMS_P1;PMS_P2;Temp;Humidity;BMP_temperature;BMP_pressure;BME280_temperature;BME280_humidity;BME280_pressure;Samples;Min_cycle;Max_cycle;Signal;HPM_P1;HPM_P2
2021/11/17 02:26:33;91471.00;0.30;158.85;0.00;0.00;0.62;;;;;12.30;1.00;;;;;;2269302;61;665;-84
2021/11/17 02:29:01;81333.00;0.27;141.34;0.00;0.00;0.62;;;;;12.40;1.00;;;;;;2342167;40;3662;31
2021/11/17 02:31:52;228390.00;0.76;394.78;0.00;0.00;0.62;;;;;12.40;1.00;;;;;;2261811;61;1453;-84
2021/11/17 02:34:35;129107.00;0.43;223.79;0.00;0.00;0.62;;;;;12.50;1.00;;;;;;2260575;61;1037;-84
2021/11/17 02:37:21;149087.00;0.50;258.23;0.00;0.00;0.62;;;;;12.80;1.00;;;;;;2260624;61;1912;-83
2021/11/17 02:40:05;131232.00;0.44;227.45;0.00;0.00;0.62;;;;;13.20;1.00;;;;;;2254204;61;1326;-83
2021/11/17 02:42:50;146018.00;0.49;252.94;0.00;0.00;0.62;;;;;13.00;1.00;;;;;;2254083;61;973;-84
2021/11/17 02:47:51;466881.00;1.56;804.82;105282.00;0.35;182.69;;;;;13.40;1.00;;;;;;2514552;40;3458;31
2021/11/17 03:02:58;62013.00;0.21;107.96;0.00;0.00;0.62;;;;;12.40;1.00;;;;;;2270475;61;1402;-84
2021/11/17 03:05:55;52309.00;0.17;91.18;0.00;0.00;0.62;;;;;12.10;1.00;;;;;;2268867;61;1146;-86
2021/11/17 03:11:14;143475.00;0.48;248.56;0.00;0.00;0.62;;;;;11.70;1.00;;;;;;2270979;61;1406;-82
2021/11/17 03:14:06;131092.00;0.44;227.21;0.00;0.00;0.62;;;;;12.10;1.00;;;;;;2260596;61;1005;-83
2021/11/17 03:19:16;82475.00;0.27;143.31;0.00;0.00;0.62;;;;;12.00;1.00;;;;;;2266681;61;1423;-83
2021/11/17 03:22:07;85560.00;0.29;148.64;0.00;0.00;0.62;;;;;11.60;1.00;;;;;;2264870;61;989;-84
2021/11/17 03:27:16;117077.00;0.39;203.04;0.00;0.00;0.62;;;;;11.80;1.00;;;;;;2270875;61;1363;-84
2021/11/17 03:32:18;541066.00;1.80;932.56;85178.00;0.28;147.98;;;;;11.20;1.00;;;;;;2314400;40;3723;31
2021/11/17 03:47:35;229783.00;0.77;397.18;0.00;0.00;0.62;;;;;11.00;1.00;;;;;;2270641;61;968;-87
2021/11/17 03:50:37;145503.00;0.49;252.06;0.00;0.00;0.62;;;;;10.80;1.00;;;;;;2264279;61;1349;-82
2021/11/17 03:53:20;47019.00;0.16;82.03;0.00;0.00;0.62;;;;;11.00;1.00;;;;;;2264902;61;1016;-84
2021/11/17 03:58:26;36637.00;0.12;64.07;0.00;0.00;0.62;;;;;10.40;1.00;;;;;;2270834;61;1415;-84
2021/11/17 04:01:12;194958.00;0.65;337.24;0.00;0.00;0.62;;;;;10.20;1.00;;;;;;2268405;61;1495;-83
2021/11/17 04:06:24;490809.00;1.64;846.00;93251.00;0.31;161.92;;;;;10.40;1.00;;;;;;2277687;61;1394;-84
2021/11/17 04:18:53;69343.00;0.23;120.63;0.00;0.00;0.62;;;;;11.10;1.00;;;;;;2270461;61;1430;-85
2021/11/17 04:24:07;120419.00;0.40;208.81;0.00;0.00;0.62;;;;;11.50;1.00;;;;;;2271484;61;1327;-83
2021/11/17 04:36:55;126795.00;0.42;219.80;0.00;0.00;0.62;;;;;10.20;1.00;;;;;;2267200;61;1894;-84
2021/11/17 04:39:47;99235.00;0.33;172.25;0.00;0.00;0.62;;;;;10.10;1.00;;;;;;2332089;40;3839;31
2021/11/17 04:49:59;79709.00;0.27;138.53;0.00;0.00;0.62;;;;;10.80;1.00;;;;;;2271299;61;1442;-83
2021/11/17 04:55:12;24374.00;0.08;42.84;0.00;0.00;0.62;;;;;10.60;1.00;;;;;;2522552;40;3598;31
2021/11/17 05:07:41;113637.00;0.38;197.11;0.00;0.00;0.62;;;;;11.00;1.00;;;;;;2271248;61;997;-87
2021/11/17 05:30:09;15024.00;0.05;26.65;0.00;0.00;0.62;;;;;11.00;1.00;;;;;;2270895;61;1363;-87
2021/11/17 05:32:49;20762.00;0.07;36.59;0.00;0.00;0.62;;;;;11.00;1.00;;;;;;2264628;61;982;-84
2021/11/17 05:35:45;139457.00;0.46;241.63;0.00;0.00;0.62;;;;;11.10;1.00;;;;;;2264632;61;1041;-84
2021/11/17 05:38:23;29346.00;0.10;51.45;0.00;0.00;0.62;;;;;11.10;1.00;;;;;;2254742;61;1930;-83
2021/11/17 05:45:58;116881.00;0.39;202.70;0.00;0.00;0.62;;;;;11.50;1.00;;;;;;2270807;61;1382;-84
2021/11/17 05:48:39;30883.00;0.10;54.11;0.00;0.00;0.62;;;;;11.70;1.00;;;;;;2264524;61;954;-83
2021/11/17 05:51:31;169164.00;0.56;292.83;0.00;0.00;0.62;;;;;11.80;1.00;;;;;;2264752;61;1592;-85
2021/11/17 05:54:15;140957.00;0.47;244.22;0.00;0.00;0.62;;;;;11.70;1.00;;;;;;2264748;61;1125;-85
2021/11/17 05:56:57;47496.00;0.16;82.86;0.00;0.00;0.62;;;;;11.80;1.00;;;;;;2264832;61;2003;-83
2021/11/17 06:02:06;87289.00;0.29;151.63;0.00;0.00;0.62;;;;;11.90;1.00;;;;;;2270560;61;1411;-85
2021/11/17 06:04:32;333661.00;1.11;575.78;83508.00;0.28;145.10;;;;;11.60;1.00;;;;;;2265096;61;929;-84
2021/11/17 06:07:00;345064.00;1.15;595.38;0.00;0.00;0.62;;;;;11.80;1.00;;;;;;2268849;61;982;-84
2021/11/17 06:09:26;455378.00;1.52;785.03;63636.00;0.21;110.76;;;;;11.50;1.00;;;;;;2267827;61;1644;-83
2021/11/17 06:14:28;57328.00;0.19;99.86;0.00;0.00;0.62;;;;;11.60;1.00;;;;;;2270326;61;1333;-84
2021/11/17 06:31:46;98001.00;0.33;170.12;0.00;0.00;0.62;;;;;11.70;1.00;;;;;;2270320;61;1381;-85
2021/11/17 06:34:24;101249.00;0.34;175.73;0.00;0.00;0.62;;;;;11.50;1.00;;;;;;2268927;61;973;-87
2021/11/17 06:36:51;144263.00;0.48;249.92;0.00;0.00;0.62;;;;;10.90;1.00;;;;;;2268695;61;1985;-84
2021/11/17 06:41:47;444807.00;1.48;766.85;0.00;0.00;0.62;;;;;10.90;1.00;;;;;;2270664;61;1379;-85
2021/11/17 06:44:14;541805.00;1.81;933.83;11826.00;0.04;21.11;;;;;11.00;1.00;;;;;;2268872;61;1753;-83
2021/11/17 06:46:41;492055.00;1.64;848.15;67458.00;0.22;117.37;;;;;11.10;1.00;;;;;;2268656;61;898;-83
2021/11/17 06:49:09;355883.00;1.19;613.97;14307.00;0.05;25.41;;;;;11.20;1.00;;;;;;2268903;61;1317;-82
2021/11/17 06:54:04;390347.00;1.30;673.21;0.00;0.00;0.62;;;;;11.50;1.00;;;;;;2267143;61;1173;-87
2021/11/17 06:59:01;114812.00;0.38;199.13;0.00;0.00;0.62;;;;;11.70;1.00;;;;;;2270722;61;1395;-87
2021/11/17 07:01:28;337508.00;1.13;582.39;0.00;0.00;0.62;;;;;11.40;1.00;;;;;;2272342;60;959;-84
2021/11/17 07:06:25;365057.00;1.22;629.74;0.00;0.00;0.62;;;;;10.90;1.00;;;;;;2270422;61;1402;-83
2021/11/17 07:08:52;151501.00;0.51;262.39;0.00;0.00;0.62;;;;;10.70;1.00;;;;;;2268712;61;1817;-83
2021/11/17 07:11:20;380447.00;1.27;656.19;0.00;0.00;0.62;;;;;10.60;1.00;;;;;;2268853;61;1642;-86
2021/11/17 07:13:47;292320.00;0.97;504.72;0.00;0.00;0.62;;;;;10.30;1.00;;;;;;2268755;61;1801;-86
2021/11/17 07:18:43;261582.00;0.87;451.87;0.00;0.00;0.62;;;;;10.30;1.00;;;;;;2270898;61;1985;-84
2021/11/17 07:21:11;133499.00;0.44;231.36;0.00;0.00;0.62;;;;;10.00;1.00;;;;;;2268882;61;1487;-83
2021/11/17 07:23:39;264976.00;0.88;457.71;0.00;0.00;0.62;;;;;10.00;1.00;;;;;;2268317;61;1017;-80
2021/11/17 07:26:06;112994.00;0.38;196.00;0.00;0.00;0.62;;;;;10.10;1.00;;;;;;2268918;61;1261;-82
2021/11/17 07:28:33;164901.00;0.55;285.48;0.00;0.00;0.62;;;;;10.00;1.00;;;;;;2268886;61;1800;-85
2021/11/17 07:31:00;142507.00;0.48;246.89;0.00;0.00;0.62;;;;;10.20;1.00;;;;;;2268912;61;1354;-85
2021/11/17 07:33:27;113755.00;0.38;197.31;0.00;0.00;0.62;;;;;10.30;1.00;;;;;;2268883;61;1013;-81
2021/11/17 07:35:54;408094.00;1.36;703.72;26801.00;0.09;47.05;;;;;10.30;1.00;;;;;;2268453;61;993;-84
2021/11/17 07:38:24;187577.00;0.63;324.54;0.00;0.00;0.62;;;;;10.30;1.00;;;;;;2272174;60;2006;-85
2021/11/17 07:40:54;146412.00;0.49;253.62;0.00;0.00;0.62;;;;;10.30;1.00;;;;;;2272317;60;1479;-83
2021/11/17 07:43:24;146767.00;0.49;254.24;0.00;0.00;0.62;;;;;10.50;1.00;;;;;;2262390;61;1010;-81
2021/11/17 07:45:51;68316.00;0.23;118.85;0.00;0.00;0.62;;;;;10.90;1.00;;;;;;2272318;61;1047;-85
2021/11/17 07:48:20;130125.00;0.43;225.54;0.00;0.00;0.62;;;;;11.00;1.00;;;;;;2267874;61;960;-83
2021/11/17 07:50:48;205005.00;0.68;354.54;0.00;0.00;0.62;;;;;10.90;1.00;;;;;;2268202;61;1401;-83
2021/11/17 07:53:17;66828.00;0.22;116.28;0.00;0.00;0.62;;;;;10.70;1.00;;;;;;2256157;61;952;-85
2021/11/17 07:55:49;164524.00;0.55;284.83;0.00;0.00;0.62;;;;;10.80;1.00;;;;;;2255417;61;1049;-81
2021/11/17 07:58:19;46630.00;0.16;81.36;0.00;0.00;0.62;;;;;11.40;1.00;;;;;;2246327;61;2007;-83
2021/11/17 08:00:49;123769.00;0.41;214.58;0.00;0.00;0.62;;;;;11.70;1.00;;;;;;2252922;61;1356;-83
2021/11/17 08:03:18;102036.00;0.34;177.09;0.00;0.00;0.62;;;;;11.70;1.00;;;;;;2246573;61;963;-83
2021/11/17 08:05:47;138098.00;0.46;239.29;0.00;0.00;0.62;;;;;11.80;1.00;;;;;;2248154;61;1021;-85
2021/11/17 08:08:15;183126.00;0.61;316.87;0.00;0.00;0.62;;;;;11.90;1.00;;;;;;2257588;61;984;-84
2021/11/17 08:10:43;31217.00;0.10;54.69;0.00;0.00;0.62;;;;;12.10;1.00;;;;;;2262624;61;1193;-86
2021/11/17 08:13:11;24064.00;0.08;42.31;0.00;0.00;0.62;;;;;12.20;1.00;;;;;;2269544;61;1024;-82
2021/11/17 08:15:40;28436.00;0.09;49.88;0.00;0.00;0.62;;;;;12.60;1.00;;;;;;2269362;61;901;-83
2021/11/17 08:18:07;60895.00;0.20;106.02;0.00;0.00;0.62;;;;;12.80;1.00;;;;;;2269379;61;1985;-84
2021/11/17 08:20:34;37334.00;0.12;65.28;0.00;0.00;0.62;;;;;13.10;1.00;;;;;;2272766;60;1420;-86
2021/11/17 08:23:02;36082.00;0.12;63.11;0.00;0.00;0.62;;;;;13.20;1.00;;;;;;2262980;60;954;-85
2021/11/17 08:25:30;177349.00;0.59;306.92;0.00;0.00;0.62;;;;;13.20;1.00;;;;;;2269168;61;1089;-85
2021/11/17 08:27:58;28401.00;0.09;49.82;0.00;0.00;0.62;;;;;13.00;1.00;;;;;;2260490;61;999;-84
2021/11/17 08:30:30;16042.00;0.05;28.42;0.00;0.00;0.62;;;;;13.20;1.00;;;;;;2260759;61;1393;-85
2021/11/17 08:32:59;84016.00;0.28;145.97;0.00;0.00;0.62;;;;;13.30;1.00;;;;;;2248856;61;1002;-85
2021/11/17 08:35:28;242139.00;0.81;418.43;12271.00;0.04;21.88;;;;;13.20;1.00;;;;;;2240823;61;994;-85
2021/11/17 08:37:57;129131.00;0.43;223.83;37978.00;0.13;66.39;;;;;13.20;1.00;;;;;;2236560;62;1928;-86
2021/11/17 08:40:28;98707.00;0.33;171.34;0.00;0.00;0.62;;;;;13.10;1.00;;;;;;2243285;61;1458;-83
2021/11/17 08:42:56;85625.00;0.29;148.75;0.00;0.00;0.62;;;;;13.10;1.00;;;;;;2244724;61;1029;-85
2021/11/17 08:45:24;29917.00;0.10;52.44;0.00;0.00;0.62;;;;;13.30;1.00;;;;;;2246585;61;1053;-82
2021/11/17 08:47:52;36036.00;0.12;63.03;0.00;0.00;0.62;;;;;12.90;1.00;;;;;;2249403;61;984;-85
2021/11/17 08:50:23;30288.00;0.10;53.08;0.00;0.00;0.62;;;;;13.20;1.00;;;;;;2254170;61;1419;-84
2021/11/17 08:52:52;52910.00;0.18;92.22;0.00;0.00;0.62;;;;;13.00;1.00;;;;;;2258799;61;1049;-81
2021/11/17 08:55:20;243129.00;0.81;420.13;15623.00;0.05;27.69;;;;;13.10;1.00;;;;;;2263459;61;1125;-84
2021/11/17 08:57:48;18403.00;0.06;32.50;0.00;0.00;0.62;;;;;13.00;1.00;;;;;;2276690;61;1910;-85
2021/11/17 09:00:17;31011.00;0.10;54.33;0.00;0.00;0.62;;;;;13.20;1.00;;;;;;2267913;61;1329;-83
2021/11/17 09:02:46;24753.00;0.08;43.50;0.00;0.00;0.62;;;;;13.40;1.00;;;;;;2260119;61;969;-83
2021/11/17 09:05:16;39568.00;0.13;69.14;0.00;0.00;0.62;;;;;13.20;1.00;;;;;;2260708;61;1020;-81
2021/11/17 09:07:46;47738.00;0.16;83.27;0.00;0.00;0.62;;;;;13.20;1.00;;;;;;2253987;61;951;-85
2021/11/17 09:10:15;87331.00;0.29;151.70;0.00;0.00;0.62;;;;;12.70;1.00;;;;;;2260401;61;1278;-85
2021/11/17 09:12:43;19246.00;0.06;33.96;0.00;0.00;0.62;;;;;12.70;1.00;;;;;;2254107;61;946;-83
2021/11/17 09:15:12;48134.00;0.16;83.96;0.00;0.00;0.62;;;;;13.10;1.00;;;;;;2260694;61;940;-83
2021/11/17 09:17:41;113355.00;0.38;196.62;0.00;0.00;0.62;;;;;12.90;1.00;;;;;;2260611;61;1910;-83
2021/11/17 09:20:10;29820.00;0.10;52.27;0.00;0.00;0.62;;;;;12.80;1.00;;;;;;2255880;61;1430;-84
2021/11/17 09:22:38;118582.00;0.40;205.64;0.00;0.00;0.62;;;;;12.80;1.00;;;;;;2262205;61;1005;-83
2021/11/17 09:25:08;65174.00;0.22;113.42;0.00;0.00;0.62;;;;;13.00;1.00;;;;;;2272217;61;951;-84
2021/11/17 09:27:35;65544.00;0.22;114.06;0.00;0.00;0.62;;;;;13.00;1.00;;;;;;2260632;61;992;-83
2021/11/17 09:30:04;46122.00;0.15;80.48;0.00;0.00;0.62;;;;;13.00;1.00;;;;;;2248562;61;1369;-86
2021/11/17 09:32:32;52998.00;0.18;92.37;0.00;0.00;0.62;;;;;13.10;1.00;;;;;;2248770;61;1020;-84
2021/11/17 09:35:00;59787.00;0.20;104.11;0.00;0.00;0.62;;;;;13.00;1.00;;;;;;2248732;61;1056;-83
2021/11/17 09:37:28;239971.00;0.80;414.70;47212.00;0.16;82.36;;;;;13.10;1.00;;;;;;2248652;61;1993;-83
2021/11/17 09:39:56;19614.00;0.07;34.60;0.00;0.00;0.62;;;;;13.10;1.00;;;;;;2248786;61;1607;-84
2021/11/17 09:42:25;64444.00;0.21;112.16;0.00;0.00;0.62;;;;;13.30;1.00;;;;;;2248738;61;1041;-85
2021/11/17 09:44:54;54375.00;0.18;94.75;0.00;0.00;0.62;;;;;13.10;1.00;;;;;;2250595;61;1146;-84
2021/11/17 09:47:26;321713.00;1.07;555.24;18042.00;0.06;31.88;;;;;13.30;1.00;;;;;;2262214;61;1019;-82
2021/11/17 09:49:58;58900.00;0.20;102.58;0.00;0.00;0.62;;;;;13.40;1.00;;;;;;2262036;61;1446;-85
2021/11/17 09:52:29;18791.00;0.06;33.18;0.00;0.00;0.62;;;;;13.20;1.00;;;;;;2260527;61;1005;-84
2021/11/17 09:55:03;19065.00;0.06;33.65;0.00;0.00;0.62;;;;;13.20;1.00;;;;;;2260595;61;1037;-85
2021/11/17 09:57:35;56746.00;0.19;98.85;0.00;0.00;0.62;;;;;13.10;1.00;;;;;;2260646;61;1927;-83
2021/11/17 10:00:09;35688.00;0.12;62.43;0.00;0.00;0.62;;;;;13.30;1.00;;;;;;2260211;61;1328;-85
2021/11/17 10:02:42;69675.00;0.23;121.20;0.00;0.00;0.62;;;;;13.70;1.00;;;;;;2253718;61;989;-83
2021/11/17 10:05:13;53348.00;0.18;92.98;0.00;0.00;0.62;;;;;13.50;1.00;;;;;;2250530;61;1022;-85
2021/11/17 10:13:15;136433.00;0.45;236.42;0.00;0.00;0.62;;;;;13.10;1.00;;;;;;2266767;61;1365;-84
2021/11/17 10:15:46;99048.00;0.33;171.93;0.00;0.00;0.62;;;;;13.00;1.00;;;;;;2260692;61;943;-80
2021/11/17 10:18:32;268480.00;0.89;463.73;24501.00;0.08;43.06;;;;;12.50;1.00;;;;;;2260693;61;1999;-84
2021/11/17 10:21:04;70176.00;0.23;122.06;0.00;0.00;0.62;;;;;12.30;1.00;;;;;;2252520;61;1414;-85
2021/11/17 10:23:33;171554.00;0.57;296.94;0.00;0.00;0.62;;;;;12.20;1.00;;;;;;2244685;61;939;-84
2021/11/17 10:26:10;85104.00;0.28;147.85;0.00;0.00;0.62;;;;;12.70;1.00;;;;;;2238315;61;940;-85
2021/11/17 10:28:52;110424.00;0.37;191.56;0.00;0.00;0.62;;;;;12.40;1.00;;;;;;2244846;61;1006;-82
2021/11/17 10:31:22;50200.00;0.17;87.53;0.00;0.00;0.62;;;;;12.00;1.00;;;;;;2236961;61;968;-85
2021/11/17 10:34:10;135534.00;0.45;234.87;0.00;0.00;0.62;;;;;12.50;1.00;;;;;;2240802;61;983;-82
2021/11/17 10:36:54;107846.00;0.36;187.11;0.00;0.00;0.62;;;;;12.60;1.00;;;;;;2240454;62;1222;-83
2021/11/17 10:39:25;74633.00;0.25;129.77;0.00;0.00;0.62;;;;;12.80;1.00;;;;;;2233743;62;1998;-81
2021/11/17 10:41:57;104202.00;0.35;180.82;0.00;0.00;0.62;;;;;13.00;1.00;;;;;;2237228;62;995;-83
2021/11/17 10:44:49;185168.00;0.62;320.39;0.00;0.00;0.62;;;;;13.00;1.00;;;;;;2234035;62;977;-82
2021/11/17 10:47:24;68594.00;0.23;119.33;0.00;0.00;0.62;;;;;13.30;1.00;;;;;;2233931;61;991;-84
2021/11/17 10:57:22;434556.00;1.45;749.22;89549.00;0.30;155.53;;;;;13.10;1.00;;;;;;2270586;61;1412;-84
2021/11/17 10:59:51;384259.00;1.28;662.75;86881.00;0.29;150.92;;;;;13.30;1.00;;;;;;2268601;61;1928;-83
2021/11/17 11:02:26;413449.00;1.38;712.93;85261.00;0.28;148.12;;;;;13.30;1.00;;;;;;2268697;61;823;-84
2021/11/17 11:05:00;419267.00;1.40;722.93;85405.00;0.28;148.37;;;;;13.10;1.00;;;;;;2268634;61;1014;-85
2021/11/17 11:10:01;522762.00;1.74;901.02;84346.00;0.28;146.54;;;;;12.90;1.00;;;;;;2268855;61;1388;-84
2021/11/17 11:15:07;323087.00;1.08;557.60;90275.00;0.30;156.78;;;;;12.60;1.00;;;;;;2266528;61;1396;-85
2021/11/17 11:24:59;123935.00;0.41;214.87;0.00;0.00;0.62;;;;;12.70;1.00;;;;;;2270474;61;1425;-84
2021/11/17 11:27:32;289851.00;0.97;500.47;56538.00;0.19;98.49;;;;;12.70;1.00;;;;;;2268592;61;896;-85
2021/11/17 11:30:38;109466.00;0.36;189.91;0.00;0.00;0.62;;;;;12.60;1.00;;;;;;2268598;61;1737;-85
2021/11/17 11:33:26;350364.00;1.17;604.49;93116.00;0.31;161.69;;;;;13.30;1.00;;;;;;2259828;61;1094;-83
2021/11/17 11:36:37;1368808.00;4.56;2398.60;158348.00;0.53;274.19;;;;;13.20;1.00;;;;;;2260099;61;945;-84
2021/11/17 11:39:40;1831135.00;6.10;3283.16;515963.00;1.72;889.31;;;;;12.90;1.00;;;;;;2260071;61;1973;-84
2021/11/17 11:42:58;272765.00;0.91;471.10;0.00;0.00;0.62;;;;;12.70;1.00;;;;;;2252081;61;1086;-86
2021/11/17 11:45:46;374759.00;1.25;646.42;35523.00;0.12;62.14;;;;;12.80;1.00;;;;;;2251535;61;968;-86
2021/11/17 11:49:02;409503.00;1.37;706.14;61169.00;0.20;106.50;;;;;13.10;1.00;;;;;;2240147;61;966;-85
2021/11/17 11:51:52;196518.00;0.66;339.93;0.00;0.00;0.62;;;;;12.80;1.00;;;;;;2232431;62;1024;-81
2021/11/17 11:54:26;299127.00;1.00;516.42;0.00;0.00;0.62;;;;;12.80;1.00;;;;;;2232523;62;1009;-86
2021/11/17 11:59:27;147484.00;0.49;255.47;0.00;0.00;0.62;;;;;13.30;1.00;;;;;;2270101;61;1976;-82
2021/11/17 12:02:12;517892.00;1.73;892.63;83721.00;0.28;145.46;;;;;13.00;1.00;;;;;;2268587;61;1008;-85
2021/11/17 12:04:43;168370.00;0.56;291.46;0.00;0.00;0.62;;;;;12.70;1.00;;;;;;2254151;61;975;-84
2021/11/17 12:07:15;83791.00;0.28;145.59;0.00;0.00;0.62;;;;;12.80;1.00;;;;;;2264065;61;1098;-83
2021/11/17 12:12:22;272141.00;0.91;470.03;0.00;0.00;0.62;;;;;12.70;1.00;;;;;;2270222;61;1398;-83
2021/11/17 12:14:52;178225.00;0.59;308.43;0.00;0.00;0.62;;;;;12.70;1.00;;;;;;2268677;61;1016;-84
2021/11/17 12:19:51;340734.00;1.14;587.94;0.00;0.00;0.62;;;;;12.90;1.00;;;;;;2264778;61;1977;-84
2021/11/17 12:22:22;154481.00;0.51;267.53;0.00;0.00;0.62;;;;;13.30;1.00;;;;;;2260783;61;997;-80
2021/11/17 12:24:52;857276.00;2.86;1481.20;121450.00;0.40;210.58;;;;;13.10;1.00;;;;;;2256830;61;955;-84
2021/11/17 12:27:21;422287.00;1.41;728.12;88046.00;0.29;152.93;;;;;13.30;1.00;;;;;;2260750;61;922;-83
2021/11/17 12:29:57;1072233.00;3.57;1860.84;233311.00;0.78;403.24;;;;;13.40;1.00;;;;;;2260609;61;1356;-84
2021/11/17 12:32:30;379857.00;1.27;655.18;92634.00;0.31;160.86;;;;;13.00;1.00;;;;;;2253541;61;1053;-81
2021/11/17 12:35:09;512669.00;1.71;883.64;189283.00;0.63;327.47;;;;;13.20;1.00;;;;;;2260754;61;1004;-82
2021/11/17 12:42:48;308547.00;1.03;532.61;88888.00;0.30;154.39;;;;;13.40;1.00;;;;;;2270019;61;1181;-84
2021/11/17 12:45:21;345732.00;1.15;596.53;91333.00;0.30;158.61;;;;;13.20;1.00;;;;;;2269265;61;1006;-84
2021/11/17 12:50:20;321297.00;1.07;554.53;90725.00;0.30;157.56;;;;;12.70;1.00;;;;;;2270608;61;1428;-84
2021/11/17 12:52:53;481368.00;1.60;829.75;102371.00;0.34;177.66;;;;;12.70;1.00;;;;;;2269201;61;1008;-83
2021/11/17 12:55:24;236469.00;0.79;408.68;97031.00;0.32;168.45;;;;;13.00;1.00;;;;;;2269125;61;977;-82
2021/11/17 12:57:59;257711.00;0.86;445.21;86713.00;0.29;150.63;;;;;13.10;1.00;;;;;;2269099;61;1444;-82
2021/11/17 13:02:58;404712.00;1.35;697.91;114597.00;0.38;198.76;;;;;12.90;1.00;;;;;;2270887;61;1386;-84
2021/11/17 13:05:31;126521.00;0.42;219.33;0.00;0.00;0.62;;;;;12.90;1.00;;;;;;2260828;61;1024;-83
2021/11/17 13:08:01;2930723.00;9.77;5743.43;570665.00;1.90;983.59;;;;;12.90;1.00;;;;;;2254159;61;986;-83
2021/11/17 13:10:34;766182.00;2.55;1322.21;145293.00;0.48;251.69;;;;;12.80;1.00;;;;;;2260877;61;1440;-82
2021/11/17 13:13:12;54999.00;0.18;95.83;0.00;0.00;0.62;;;;;12.70;1.00;;;;;;2256634;61;993;-84
2021/11/17 13:23:33;373998.00;1.25;645.11;41607.00;0.14;72.67;;;;;13.10;1.00;;;;;;2270467;61;1683;-86
2021/11/17 13:33:28;33689.00;0.11;58.97;0.00;0.00;0.62;;;;;12.90;1.00;;;;;;2271534;61;1319;-87
2021/11/17 13:38:24;22248.00;0.07;39.16;0.00;0.00;0.62;;;;;13.10;1.00;;;;;;2271107;61;1879;-87
2021/11/17 13:40:54;96303.00;0.32;167.19;0.00;0.00;0.62;;;;;13.20;1.00;;;;;;2268869;61;1735;-79
2021/11/17 13:43:23;5921.00;0.02;10.88;0.00;0.00;0.62;;;;;13.30;1.00;;;;;;2268765;61;938;-83
2021/11/17 13:48:33;268634.00;0.90;464.00;73304.00;0.24;127.47;;;;;12.40;1.00;;;;;;2266958;61;1325;-84
2021/11/17 14:00:56;80151.00;0.27;139.30;0.00;0.00;0.62;;;;;12.40;1.00;;;;;;2505414;55;3743;31
2021/11/17 14:03:23;70096.00;0.23;121.93;0.00;0.00;0.62;;;;;12.50;1.00;;;;;;2271078;61;945;-86
2021/11/17 14:33:04;57865.00;0.19;100.79;0.00;0.00;0.62;;;;;12.60;1.00;;;;;;2278426;61;1311;-83
2021/11/17 14:40:27;1760597.00;5.87;3143.78;484736.00;1.62;835.55;;;;;12.40;1.00;;;;;;2271165;61;1900;-88
2021/11/17 14:42:55;167793.00;0.56;290.46;0.00;0.00;0.62;;;;;12.20;1.00;;;;;;2269308;61;1314;-87
2021/11/17 14:45:26;243408.00;0.81;420.61;0.00;0.00;0.62;;;;;12.20;1.00;;;;;;2262342;61;834;-90
2021/11/17 14:52:52;60766.00;0.20;105.80;0.00;0.00;0.62;;;;;11.90;1.00;;;;;;2270525;61;1422;-83
2021/11/17 15:07:41;64536.00;0.22;112.32;0.00;0.00;0.62;;;;;12.20;1.00;;;;;;2270207;61;1415;-84
2021/11/17 15:10:13;169341.00;0.56;293.13;0.00;0.00;0.62;;;;;12.10;1.00;;;;;;2268832;61;1440;-83
2021/11/17 15:12:44;137306.00;0.46;237.93;18084.00;0.06;31.95;;;;;12.00;1.00;;;;;;2456554;40;3876;31
2021/11/17 15:25:06;41215.00;0.14;71.99;0.00;0.00;0.62;;;;;12.00;1.00;;;;;;2270578;61;1159;-85
2021/11/17 15:42:28;50879.00;0.17;88.71;0.00;0.00;0.62;;;;;11.70;1.00;;;;;;2270336;61;1407;-84
2021/11/17 15:49:51;52737.00;0.18;91.92;0.00;0.00;0.62;;;;;11.40;1.00;;;;;;2270256;61;1451;-86
2021/11/17 16:12:07;30902.00;0.10;54.14;0.00;0.00;0.62;;;;;12.70;1.00;;;;;;2270892;61;1291;-87
2021/11/17 16:14:35;86848.00;0.29;150.86;11033.00;0.04;19.74;;;;;12.60;1.00;;;;;;2268660;61;981;-86
2021/11/17 16:26:59;23217.00;0.08;40.84;0.00;0.00;0.62;;;;;12.20;1.00;;;;;;2270907;61;1145;-85
2021/11/17 16:34:30;164964.00;0.55;285.59;0.00;0.00;0.62;;;;;11.70;1.00;;;;;;2271082;61;1146;-85
2021/11/17 16:54:34;316099.00;1.05;545.59;0.00;0.00;0.62;;;;;12.30;1.00;;;;;;2275256;61;1290;-85
2021/11/17 16:57:01;472158.00;1.57;813.90;0.00;0.00;0.62;;;;;12.40;1.00;;;;;;2269517;61;951;-84
2021/11/17 16:59:28;403522.00;1.35;695.86;0.00;0.00;0.62;;;;;12.80;1.00;;;;;;2264390;61;1982;-85
2021/11/17 17:01:55;530252.00;1.77;913.93;0.00;0.00;0.62;;;;;12.80;1.00;;;;;;2257816;61;955;-85
2021/11/17 17:04:22;646935.00;2.16;1115.33;0.00;0.00;0.62;;;;;12.60;1.00;;;;;;2256988;61;918;-84
2021/11/17 17:09:19;380074.00;1.27;655.55;3939.00;0.01;7.45;;;;;13.10;1.00;;;;;;2270895;61;1415;-84
2021/11/17 17:14:16;427004.00;1.42;736.23;0.00;0.00;0.62;;;;;12.50;1.00;;;;;;2270744;61;1409;-85
2021/11/17 17:29:24;0.00;0.00;0.62;0.00;0.00;0.62;;;;;11.30;1.00;;;;;;2271022;61;1361;-85
2021/11/17 17:31:51;128028.00;0.43;221.93;0.00;0.00;0.62;;;;;11.70;1.00;;;;;;2272854;61;975;-83
2021/11/17 17:34:18;0.00;0.00;0.62;0.00;0.00;0.62;;;;;11.50;1.00;;;;;;2268724;61;968;-85
2021/11/17 17:36:45;21737.00;0.07;38.28;0.00;0.00;0.62;;;;;11.50;1.00;;;;;;2268370;61;985;-86
2021/11/17 17:39:12;133676.00;0.45;231.67;0.00;0.00;0.62;;;;;11.60;1.00;;;;;;2268765;61;1981;-84
2021/11/17 17:41:40;46935.00;0.16;81.89;0.00;0.00;0.62;;;;;11.50;1.00;;;;;;2258892;61;1052;-87
2021/11/17 17:44:07;29779.00;0.10;52.20;0.00;0.00;0.62;;;;;11.30;1.00;;;;;;2268707;61;910;-83
2021/11/17 17:46:37;253901.00;0.85;438.66;70006.00;0.23;121.77;;;;;11.20;1.00;;;;;;2264472;61;984;-86
2021/11/17 17:49:06;67823.00;0.23;118.00;0.00;0.00;0.62;;;;;11.40;1.00;;;;;;2259349;61;1322;-84
2021/11/17 17:54:07;66711.00;0.22;116.08;0.00;0.00;0.62;;;;;11.50;1.00;;;;;;2271077;61;1347;-84
2021/11/17 17:56:33;18310.00;0.06;32.34;0.00;0.00;0.62;;;;;11.50;1.00;;;;;;2264614;61;951;-84
2021/11/17 17:59:00;52704.00;0.18;91.86;0.00;0.00;0.62;;;;;11.50;1.00;;;;;;2260353;61;2010;-83
2021/11/17 18:01:28;108821.00;0.36;188.80;0.00;0.00;0.62;;;;;11.30;1.00;;;;;;2260237;61;948;-85
2021/11/17 18:03:56;102523.00;0.34;177.93;0.00;0.00;0.62;;;;;11.40;1.00;;;;;;2260465;61;1040;-83
2021/11/17 18:06:24;26026.00;0.09;45.70;0.00;0.00;0.62;;;;;11.10;1.00;;;;;;2250602;61;963;-84
2021/11/17 18:08:51;120012.00;0.40;208.10;0.00;0.00;0.62;;;;;11.20;1.00;;;;;;2252290;61;982;-84
2021/11/17 18:11:21;53626.00;0.18;93.46;0.00;0.00;0.62;;;;;11.50;1.00;;;;;;2249046;61;1441;-82
2021/11/17 18:16:18;80276.00;0.27;139.51;0.00;0.00;0.62;;;;;11.80;1.00;;;;;;2266639;61;1414;-84
2021/11/17 18:18:45;76484.00;0.25;132.96;0.00;0.00;0.62;;;;;11.50;1.00;;;;;;2257970;61;955;-85
2021/11/17 18:26:22;103025.00;0.34;178.79;0.00;0.00;0.62;;;;;11.90;1.00;;;;;;2271235;61;1321;-87
2021/11/17 18:28:49;112510.00;0.38;195.16;0.00;0.00;0.62;;;;;12.10;1.00;;;;;;2265053;61;964;-84
2021/11/17 18:31:17;221940.00;0.74;383.68;0.00;0.00;0.62;;;;;12.10;1.00;;;;;;2268884;61;1313;-84
2021/11/17 18:33:45;31987.00;0.11;56.02;0.00;0.00;0.62;;;;;11.80;1.00;;;;;;2268965;61;930;-84
2021/11/17 18:36:13;96442.00;0.32;167.43;0.00;0.00;0.62;;;;;12.20;1.00;;;;;;2268898;61;1245;-83
2021/11/17 18:38:41;123752.00;0.41;214.55;0.00;0.00;0.62;;;;;12.10;1.00;;;;;;2268678;61;1532;-84
2021/11/17 18:41:15;79389.00;0.26;137.98;0.00;0.00;0.62;;;;;12.20;1.00;;;;;;2268718;61;1944;-85
2021/11/17 18:43:44;124244.00;0.41;215.40;0.00;0.00;0.62;;;;;11.80;1.00;;;;;;2268658;61;1261;-85
2021/11/17 18:46:11;91390.00;0.30;158.71;0.00;0.00;0.62;;;;;11.60;1.00;;;;;;2268808;61;1599;-80
2021/11/17 18:48:38;342490.00;1.14;590.95;9547.00;0.03;17.16;;;;;11.70;1.00;;;;;;2268558;61;1658;-82
2021/11/17 18:56:01;23044.00;0.08;40.54;0.00;0.00;0.62;;;;;12.80;1.00;;;;;;2270584;61;1398;-86
2021/11/17 19:01:02;33985.00;0.11;59.48;0.00;0.00;0.62;;;;;12.70;1.00;;;;;;2270295;61;1974;-84
2021/11/17 19:05:57;31886.00;0.11;55.85;0.00;0.00;0.62;;;;;13.20;1.00;;;;;;2278196;61;1390;-84
2021/11/17 19:13:21;83105.00;0.28;144.40;0.00;0.00;0.62;;;;;12.90;1.00;;;;;;2266004;61;1393;-84
2021/11/17 19:15:48;113250.00;0.38;196.44;0.00;0.00;0.62;;;;;12.80;1.00;;;;;;2260683;61;965;-85